Time;durP1;ratioP1;P1;durP2;ratioP2;P2;SDS_P1;SDS_P2;PMS_P1;PMS_P2;Temp;Humidity;BMP_temperature;BMP_pressure;BME280_temperature;BME280_humidity;BME280_pressure;Samples;Min_cycle;Max_cycle;Signal;HPM_P1;HPM_P2
2021/08/21 00:01:04;;;;;;;5.90;3.10;;;17.10;99.90;;;;;;5015392;28;20025;-79
2021/08/21 00:03:30;;;;;;;4.65;2.92;;;;;;;;;;5014783;28;20259;-80
2021/08/21 00:05:55;;;;;;;4.97;3.00;;;17.10;99.90;;;;;;5035691;28;20026;-77
2021/08/21 00:08:21;;;;;;;4.90;3.60;;;;;;;;;;5032269;28;20026;-79
2021/08/21 00:10:47;;;;;;;3.88;2.60;;;17.10;99.90;;;;;;5034815;28;20049;-78
2021/08/21 00:13:13;;;;;;;6.07;3.00;;;;;;;;;;5033613;28;20073;-79
2021/08/21 00:15:39;;;;;;;4.55;2.60;;;17.10;99.90;;;;;;5015934;28;20370;-76
2021/08/21 00:18:05;;;;;;;4.55;2.90;;;17.10;99.90;;;;;;5019351;28;20025;-79
2021/08/21 00:20:31;;;;;;;6.40;2.80;;;19.10;99.90;;;;;;5011866;28;20060;-77
2021/08/21 00:22:56;;;;;;;6.63;3.38;;;17.00;99.90;;;;;;5017687;28;20116;-79
2021/08/21 00:25:22;;;;;;;4.63;2.70;;;16.90;99.90;;;;;;5012167;28;20063;-79
2021/08/21 00:27:48;;;;;;;5.13;2.78;;;;;;;;;;5034783;28;20093;-78
2021/08/21 00:30:14;;;;;;;5.93;2.78;;;16.90;99.90;;;;;;5033929;28;20079;-79
2021/08/21 00:32:40;;;;;;;5.43;2.83;;;16.90;99.90;;;;;;5013754;28;20098;-79
2021/08/21 00:35:07;;;;;;;5.20;3.13;;;16.90;99.90;;;;;;5030395;28;20068;-79
2021/08/21 00:37:33;;;;;;;3.75;2.63;;;16.90;99.90;;;;;;5008452;28;20112;-80
2021/08/21 00:39:59;;;;;;;5.85;2.83;;;;;;;;;;5006541;28;20057;-77
2021/08/21 00:42:24;;;;;;;5.07;3.15;;;16.90;99.90;;;;;;5033922;28;20048;-77
2021/08/21 00:44:50;;;;;;;7.63;3.20;;;16.90;99.90;;;;;;5014778;28;20100;-77
2021/08/21 00:47:18;;;;;;;5.50;3.00;;;16.90;99.90;;;;;;5031219;28;20064;-79
2021/08/21 00:49:54;;;;;;;5.72;3.10;;;17.10;99.90;;;;;;5029660;28;20029;-79
2021/08/21 00:52:25;;;;;;;4.40;2.83;;;16.90;99.90;;;;;;5010144;28;20037;-79
2021/08/21 00:54:52;;;;;;;6.05;3.30;;;16.90;99.90;;;;;;5014747;28;20018;-77
2021/08/21 00:57:20;;;;;;;5.45;2.90;;;16.90;99.90;;;;;;5016380;28;20065;-80
2021/08/21 00:59:47;;;;;;;5.13;3.10;;;16.90;99.90;;;;;;5028613;28;20045;-77
2021/08/21 01:02:14;;;;;;;4.15;2.53;;;16.90;99.90;;;;;;5013563;28;20093;-80
2021/08/21 01:04:42;;;;;;;5.65;2.95;;;16.90;99.90;;;;;;5029074;28;20126;-79
2021/08/21 01:07:15;;;;;;;4.43;2.45;;;19.20;99.90;;;;;;5014084;28;20619;-79
2021/08/21 01:09:42;;;;;;;5.05;2.50;;;17.00;99.90;;;;;;5035054;28;20022;-78
2021/08/21 01:12:14;;;;;;;4.72;2.70;;;17.00;99.90;;;;;;5017427;28;20021;-79
2021/08/21 01:14:42;;;;;;;3.90;2.80;;;16.90;99.90;;;;;;5013222;28;20035;-79
2021/08/21 01:17:08;;;;;;;5.82;2.95;;;16.90;99.90;;;;;;5015803;28;20534;-79
2021/08/21 01:19:38;;;;;;;4.22;2.30;;;16.90;99.90;;;;;;5017445;28;20025;-76
2021/08/21 01:22:07;;;;;;;;;;;16.90;99.90;;;;;;5034997;28;20021;-78
2021/08/21 01:24:35;;;;;;;4.82;3.00;;;16.90;99.90;;;;;;5009197;28;19909;-77
2021/08/21 01:27:01;;;;;;;5.75;2.80;;;18.00;99.90;;;;;;5034445;28;20017;-78
2021/08/21 01:29:27;;;;;;;4.45;2.72;;;16.80;99.90;;;;;;5027517;28;20087;-78
2021/08/21 01:31:53;;;;;;;4.68;3.05;;;;;;;;;;5029549;28;20029;-78
2021/08/21 01:34:18;;;;;;;4.80;2.70;;;16.80;99.90;;;;;;5027901;28;20533;-78
2021/08/21 01:36:50;;;;;;;3.85;2.50;;;16.70;99.90;;;;;;5013915;28;20018;-78
2021/08/21 01:39:17;;;;;;;4.70;2.70;;;16.70;99.90;;;;;;5028664;28;20047;-77
2021/08/21 01:41:43;;;;;;;4.40;2.55;;;;;;;;;;5008555;28;20605;-78
2021/08/21 01:44:14;;;;;;;3.92;2.58;;;16.70;99.90;;;;;;5030522;28;20101;-80
2021/08/21 01:46:41;;;;;;;4.53;2.60;;;16.70;99.90;;;;;;5017880;28;20041;-79
2021/08/21 01:49:11;;;;;;;3.78;2.70;;;16.70;99.90;;;;;;5020358;28;20018;-79
2021/08/21 01:51:37;;;;;;;6.40;2.83;;;;;;;;;;4998975;28;20029;-80
2021/08/21 01:54:03;;;;;;;6.35;2.63;;;;;;;;;;5018039;28;20124;-78
2021/08/21 01:56:29;;;;;;;5.68;2.78;;;;;;;;;;5017124;28;20503;-77
2021/08/21 01:58:55;;;;;;;5.88;2.65;;;;;;;;;;5035190;28;20032;-79
2021/08/21 02:01:21;;;;;;;3.70;2.67;;;;;;;;;;5012136;28;20115;-77
2021/08/21 02:03:47;;;;;;;4.38;2.55;;;16.60;99.90;;;;;;5030469;28;20018;-78
2021/08/21 02:06:14;;;;;;;4.32;2.70;;;16.50;99.90;;;;;;5015512;28;20029;-79
2021/08/21 02:08:40;;;;;;;4.25;2.80;;;18.10;99.90;;;;;;5031117;28;20021;-77
2021/08/21 02:11:06;;;;;;;4.72;2.75;;;;;;;;;;5033926;28;20112;-79
2021/08/21 02:13:32;;;;;;;3.70;2.42;;;16.60;99.90;;;;;;5030332;28;20100;-77
2021/08/21 02:15:57;;;;;;;6.30;2.65;;;18.90;99.90;;;;;;5013912;28;20059;-79
2021/08/21 02:18:23;;;;;;;3.85;2.50;;;16.50;99.90;;;;;;5012901;28;20026;-78
2021/08/21 02:20:48;;;;;;;5.20;2.65;;;16.50;99.90;;;;;;5016875;28;20070;-78
2021/08/21 02:23:14;;;;;;;5.72;2.95;;;;;;;;;;5035602;28;20037;-78
2021/08/21 02:25:40;;;;;;;4.30;2.90;;;;;;;;;;5009821;28;20496;-78
2021/08/21 02:28:08;;;;;;;4.95;2.75;;;16.40;99.90;;;;;;5029269;28;20026;-78
2021/08/21 02:30:37;;;;;;;4.15;2.50;;;16.40;99.90;;;;;;5010913;28;20021;-77
2021/08/21 02:33:04;;;;;;;4.75;2.30;;;19.10;99.90;;;;;;5008071;28;20167;-76
2021/08/21 02:35:30;;;;;;;4.13;2.50;;;;;;;;;;5018180;28;20021;-76
2021/08/21 02:37:56;;;;;;;4.25;2.47;;;;;;;;;;5007933;28;20034;-76
2021/08/21 02:40:21;;;;;;;5.45;2.42;;;16.40;99.90;;;;;;5004832;28;20030;-76
2021/08/21 02:42:49;;;;;;;4.57;2.25;;;16.30;99.90;;;;;;5027829;28;20040;-77
2021/08/21 02:45:15;;;;;;;3.40;2.22;;;16.50;99.90;;;;;;5017669;28;20390;-77
2021/08/21 02:47:41;;;;;;;4.38;2.47;;;16.30;99.90;;;;;;5007677;28;20025;-77
2021/08/21 02:50:07;;;;;;;4.60;2.85;;;16.50;99.90;;;;;;5023764;28;20030;-78
2021/08/21 02:52:33;;;;;;;5.35;3.17;;;;;;;;;;5009233;28;20057;-78
2021/08/21 02:54:59;;;;;;;7.90;2.50;;;16.30;99.90;;;;;;5011527;28;20075;-77
2021/08/21 02:57:24;;;;;;;6.88;2.55;;;16.40;99.90;;;;;;5027675;28;20022;-78
2021/08/21 02:59:50;;;;;;;4.50;2.45;;;16.30;99.90;;;;;;5006563;28;20021;-78
2021/08/21 03:02:16;;;;;;;4.18;2.28;;;16.30;99.90;;;;;;5010104;28;20029;-77
2021/08/21 03:04:41;;;;;;;3.42;2.10;;;16.20;99.90;;;;;;5014309;28;20036;-78
2021/08/21 03:07:07;;;;;;;3.78;2.53;;;;;;;;;;5030170;28;20036;-77
2021/08/21 03:09:33;;;;;;;4.53;2.85;;;16.40;99.90;;;;;;5033036;28;20052;-76
2021/08/21 03:11:58;;;;;;;3.65;2.25;;;16.40;99.90;;;;;;5014558;28;20032;-77
2021/08/21 03:14:24;;;;;;;8.45;2.67;;;;;;;;;;5033062;28;20029;-78
2021/08/21 03:16:50;;;;;;;5.35;2.58;;;16.40;99.90;;;;;;5027183;28;20080;-76
2021/08/21 03:19:16;;;;;;;6.93;2.53;;;;;;;;;;5013310;28;20032;-78
2021/08/21 03:21:41;;;;;;;4.70;2.40;;;16.30;99.90;;;;;;5010631;28;20029;-77
2021/08/21 03:24:07;;;;;;;5.30;2.45;;;;;;;;;;5034537;28;20105;-76
2021/08/21 03:26:33;;;;;;;4.60;2.30;;;16.30;99.90;;;;;;5030793;28;20013;-78
2021/08/21 03:28:59;;;;;;;6.80;2.38;;;16.30;99.90;;;;;;5013220;28;20017;-77
2021/08/21 03:31:24;;;;;;;6.03;2.80;;;16.30;99.90;;;;;;5032760;28;20040;-78
2021/08/21 03:33:50;;;;;;;4.03;2.35;;;16.30;99.90;;;;;;5031002;28;20061;-78
2021/08/21 03:36:15;;;;;;;3.97;2.38;;;16.30;99.90;;;;;;5034039;28;20033;-79
2021/08/21 03:38:41;;;;;;;4.35;2.40;;;16.30;99.90;;;;;;5009434;28;20325;-77
2021/08/21 03:41:07;;;;;;;4.22;2.60;;;;;;;;;;5016278;28;20356;-77
2021/08/21 03:43:33;;;;;;;3.63;2.22;;;;;;;;;;5009467;28;20038;-76
2021/08/21 03:45:58;;;;;;;5.10;2.75;;;16.30;99.90;;;;;;5015220;28;20394;-77
2021/08/21 03:48:24;;;;;;;5.10;2.67;;;16.40;99.90;;;;;;5030109;28;20021;-76
2021/08/21 03:50:49;;;;;;;3.17;2.30;;;16.30;99.90;;;;;;5011301;28;20553;-76
2021/08/21 03:53:15;;;;;;;4.18;2.47;;;17.20;99.90;;;;;;5035208;28;20465;-76
2021/08/21 03:55:41;;;;;;;4.38;2.90;;;16.80;99.90;;;;;;5035265;28;20033;-79
2021/08/21 03:58:07;;;;;;;4.13;2.20;;;;;;;;;;5032819;28;20144;-78
2021/08/21 04:00:32;;;;;;;4.18;2.63;;;16.20;99.90;;;;;;5013694;28;20085;-78
2021/08/21 04:02:58;;;;;;;4.68;2.22;;;16.20;99.90;;;;;;5015963;28;20029;-77
2021/08/21 04:05:26;;;;;;;4.65;2.60;;;16.20;99.90;;;;;;5031275;28;20029;-78
2021/08/21 04:07:51;;;;;;;4.00;2.25;;;18.20;99.90;;;;;;5032374;28;20021;-78
2021/08/21 04:10:17;;;;;;;3.60;2.38;;;16.80;99.90;;;;;;5036269;28;20036;-78
2021/08/21 04:12:43;;;;;;;4.10;2.33;;;16.20;99.90;;;;;;5031779;28;20024;-79
2021/08/21 04:15:09;;;;;;;7.80;3.47;;;16.10;99.90;;;;;;5029348;28;20021;-77
2021/08/21 04:17:35;;;;;;;6.40;4.05;;;;;;;;;;5017894;28;20025;-76
2021/08/21 04:20:05;;;;;;;7.57;5.03;;;16.10;99.90;;;;;;5010545;28;20167;-78
2021/08/21 04:22:31;;;;;;;8.25;5.50;;;16.00;99.90;;;;;;5010135;28;20053;-78
2021/08/21 04:24:56;;;;;;;7.43;5.18;;;16.00;99.90;;;;;;5029167;28;20079;-77
2021/08/21 04:27:22;;;;;;;5.32;3.25;;;;;;;;;;5017687;28;20495;-78
2021/08/21 04:29:48;;;;;;;6.63;3.10;;;;;;;;;;5029170;28;20026;-78
2021/08/21 04:32:14;;;;;;;6.03;2.55;;;16.00;99.90;;;;;;5009253;28;20383;-76
2021/08/21 04:34:40;;;;;;;3.78;2.53;;;;;;;;;;5018650;28;20026;-76
2021/08/21 04:37:06;;;;;;;7.50;2.40;;;16.00;99.90;;;;;;5030229;28;20034;-78
2021/08/21 04:39:32;;;;;;;5.55;2.30;;;16.10;99.90;;;;;;5026896;28;20045;-78
2021/08/21 04:41:58;;;;;;;6.07;2.40;;;15.90;99.90;;;;;;5001259;28;20053;-77
2021/08/21 04:44:24;;;;;;;3.45;2.40;;;15.90;99.90;;;;;;5010010;28;20021;-79
2021/08/21 04:46:49;;;;;;;4.15;2.55;;;15.90;99.90;;;;;;5006570;28;20413;-78
2021/08/21 04:49:15;;;;;;;7.32;3.55;;;15.90;99.90;;;;;;5014982;28;20588;-77
2021/08/21 04:51:40;;;;;;;4.50;2.50;;;15.90;99.90;;;;;;5009949;28;20060;-76
2021/08/21 04:54:06;;;;;;;5.90;2.30;;;;;;;;;;5016406;28;20029;-76
2021/08/21 04:56:32;;;;;;;4.43;2.80;;;16.00;99.90;;;;;;5031112;28;20403;-78
2021/08/21 04:58:59;;;;;;;5.45;2.70;;;16.00;99.90;;;;;;5017050;28;20071;-77
2021/08/21 05:01:25;;;;;;;5.03;2.42;;;;;;;;;;5013508;28;20033;-78
2021/08/21 05:03:51;;;;;;;3.70;2.50;;;;;;;;;;5033278;28;20100;-78
2021/08/21 05:06:17;;;;;;;3.55;2.50;;;16.00;99.90;;;;;;5031992;28;20056;-78
2021/08/21 05:08:42;;;;;;;4.15;2.50;;;16.00;99.90;;;;;;5031390;28;20053;-77
2021/08/21 05:11:09;;;;;;;3.50;2.10;;;;;;;;;;5010054;28;20025;-79
2021/08/21 05:13:34;;;;;;;4.50;2.50;;;15.90;99.90;;;;;;5011174;28;20116;-79
2021/08/21 05:16:00;;;;;;;3.50;2.33;;;15.90;99.90;;;;;;5012624;28;20072;-78
2021/08/21 05:18:30;;;;;;;3.90;2.53;;;15.90;99.90;;;;;;5035864;28;20144;-78
2021/08/21 05:21:05;;;;;;;5.07;2.50;;;15.90;99.90;;;;;;5033329;28;20491;-79
2021/08/21 05:23:33;;;;;;;4.65;2.33;;;15.90;99.90;;;;;;5013878;28;20021;-80
2021/08/21 05:25:59;;;;;;;3.08;2.28;;;;;;;;;;5012014;28;20060;-78
2021/08/21 05:28:24;;;;;;;3.42;2.35;;;16.00;99.90;;;;;;5028115;28;20098;-78
2021/08/21 05:30:50;;;;;;;3.92;2.63;;;15.90;99.90;;;;;;5008668;28;20482;-78
2021/08/21 05:33:17;;;;;;;4.20;2.50;;;15.80;99.90;;;;;;5014668;28;20375;-76
2021/08/21 05:35:43;;;;;;;4.25;2.65;;;15.90;99.90;;;;;;5012068;28;20025;-77
2021/08/21 05:38:09;;;;;;;4.35;2.47;;;18.60;99.90;;;;;;5033151;28;20023;-80
2021/08/21 05:40:36;;;;;;;3.45;2.63;;;;;;;;;;5026532;28;20362;-80
2021/08/21 05:43:02;;;;;;;4.65;2.78;;;16.00;99.90;;;;;;5025433;28;20021;-81
2021/08/21 05:45:28;;;;;;;5.50;2.80;;;;;;;;;;5002195;28;20069;-78
2021/08/21 05:47:54;;;;;;;4.05;2.38;;;16.10;99.90;;;;;;5029258;28;20025;-78
2021/08/21 05:50:21;;;;;;;4.05;2.45;;;16.10;99.90;;;;;;5029211;28;20040;-78
2021/08/21 05:52:48;;;;;;;6.68;2.60;;;16.20;99.90;;;;;;5030434;28;20407;-77
2021/08/21 05:55:13;;;;;;;3.30;2.30;;;16.30;99.90;;;;;;5010941;28;20108;-78
2021/08/21 05:57:39;;;;;;;4.28;2.20;;;16.20;99.90;;;;;;5014527;28;20685;-77
2021/08/21 06:00:06;;;;;;;5.80;2.47;;;16.30;99.90;;;;;;5028884;28;20032;-78
2021/08/21 06:02:31;;;;;;;3.72;2.40;;;16.30;99.90;;;;;;5031309;28;20095;-79
2021/08/21 06:04:57;;;;;;;4.32;2.50;;;16.40;99.90;;;;;;5033100;28;20482;-78
2021/08/21 06:07:22;;;;;;;4.45;2.47;;;16.80;99.90;;;;;;5012354;28;20026;-77
2021/08/21 06:09:48;;;;;;;4.45;2.40;;;;;;;;;;5032824;28;20104;-76
2021/08/21 06:12:14;;;;;;;6.00;2.80;;;16.60;99.90;;;;;;5014698;28;20022;-79
2021/08/21 06:14:40;;;;;;;5.18;3.03;;;19.30;99.90;;;;;;5014973;28;20017;-77
2021/08/21 06:17:08;;;;;;;3.55;2.17;;;16.90;99.90;;;;;;5004340;28;20026;-75
2021/08/21 06:19:34;;;;;;;4.22;2.60;;;20.20;99.90;;;;;;5011092;28;20029;-77
2021/08/21 06:22:00;;;;;;;3.40;2.03;;;17.10;99.90;;;;;;5013528;28;20022;-77
2021/08/21 06:24:26;;;;;;;3.78;2.50;;;;;;;;;;5015398;28;20117;-76
2021/08/21 06:26:51;;;;;;;5.15;2.60;;;17.20;99.90;;;;;;5031269;28;20024;-77
2021/08/21 06:29:17;;;;;;;3.50;2.33;;;17.30;99.90;;;;;;5005958;28;20021;-78
2021/08/21 06:31:42;;;;;;;6.68;2.60;;;17.40;99.90;;;;;;5014219;28;20027;-79
2021/08/21 06:34:08;;;;;;;3.17;2.13;;;18.30;99.90;;;;;;5010513;28;20052;-78
2021/08/21 06:36:34;;;;;;;4.65;2.22;;;17.70;99.90;;;;;;5006664;28;20949;-79
2021/08/21 06:38:59;;;;;;;4.22;2.47;;;17.70;99.90;;;;;;5026703;28;20044;-80
2021/08/21 06:41:25;;;;;;;3.88;2.20;;;18.00;99.90;;;;;;5033253;28;20517;-78
2021/08/21 06:43:50;;;;;;;3.17;2.22;;;18.10;99.90;;;;;;5030574;28;20029;-79
2021/08/21 06:46:16;;;;;;;3.85;2.67;;;;;;;;;;5013862;28;20021;-80
2021/08/21 06:48:42;;;;;;;3.38;2.05;;;18.30;99.90;;;;;;5031994;28;20021;-79
2021/08/21 06:51:08;;;;;;;4.05;2.33;;;;;;;;;;5014531;28;20075;-76
2021/08/21 06:53:35;;;;;;;3.13;2.17;;;18.50;99.90;;;;;;5007794;28;20037;-77
2021/08/21 06:56:02;;;;;;;4.22;2.17;;;18.50;99.90;;;;;;5034100;28;20033;-77
2021/08/21 06:58:29;;;;;;;3.83;2.20;;;19.10;99.90;;;;;;5012271;28;20022;-78
2021/08/21 07:00:55;;;;;;;2.97;2.22;;;18.90;99.90;;;;;;5030876;28;20029;-79
2021/08/21 07:03:21;;;;;;;3.33;1.83;;;18.90;99.90;;;;;;5015258;28;20013;-78
2021/08/21 07:05:46;;;;;;;4.45;2.08;;;18.90;99.90;;;;;;5031213;28;20399;-77
2021/08/21 07:08:12;;;;;;;4.05;2.00;;;19.10;99.90;;;;;;5032061;28;20033;-76
2021/08/21 07:10:39;;;;;;;3.03;2.05;;;19.30;99.90;;;;;;5014399;28;20025;-77
2021/08/21 07:13:05;;;;;;;3.35;1.70;;;;;;;;;;5014664;28;20105;-78
2021/08/21 07:15:31;;;;;;;6.63;3.15;;;;;;;;;;5011493;28;20076;-78
2021/08/21 07:17:57;;;;;;;2.95;2.05;;;19.60;99.90;;;;;;5014128;28;20112;-78
2021/08/21 07:20:23;;;;;;;3.15;1.85;;;19.50;99.90;;;;;;5023071;28;20025;-77
2021/08/21 07:22:48;;;;;;;3.70;2.20;;;19.60;99.90;;;;;;5012116;28;20022;-76
2021/08/21 07:25:14;;;;;;;3.22;2.35;;;19.60;99.90;;;;;;5011114;28;20084;-78
2021/08/21 07:27:40;;;;;;;5.32;2.75;;;19.80;99.90;;;;;;5033726;28;20479;-79
2021/08/21 07:30:07;;;;;;;4.38;1.98;;;19.90;99.90;;;;;;5012156;28;20037;-79
2021/08/21 07:32:32;;;;;;;3.15;2.00;;;20.20;99.90;;;;;;5018844;28;20028;-77
2021/08/21 07:34:58;;;;;;;2.88;2.00;;;20.90;99.90;;;;;;5008870;28;20372;-78
2021/08/21 07:37:24;;;;;;;4.00;1.80;;;20.30;99.90;;;;;;5010750;28;20041;-78
2021/08/21 07:39:49;;;;;;;3.05;2.00;;;20.40;99.90;;;;;;5009699;28;20479;-78
2021/08/21 07:42:15;;;;;;;3.65;2.00;;;20.50;99.90;;;;;;5023647;28;20032;-77
2021/08/21 07:44:40;;;;;;;3.55;2.00;;;20.70;99.90;;;;;;5025396;28;20062;-77
2021/08/21 07:47:06;;;;;;;2.97;1.92;;;21.20;99.90;;;;;;5023957;28;20075;-78
2021/08/21 07:49:32;;;;;;;3.88;1.90;;;20.80;99.90;;;;;;5032642;28;20033;-78
2021/08/21 07:51:57;;;;;;;2.72;1.75;;;20.90;99.90;;;;;;5011862;28;20491;-78
2021/08/21 07:54:23;;;;;;;2.72;1.92;;;20.90;99.90;;;;;;5012849;28;20014;-80
2021/08/21 07:56:48;;;;;;;2.45;1.60;;;21.00;99.90;;;;;;5016425;28;20029;-77
2021/08/21 07:59:14;;;;;;;3.42;2.22;;;21.70;99.90;;;;;;5010172;28;20021;-79
2021/08/21 08:01:40;;;;;;;2.97;2.10;;;;;;;;;;5034228;28;20074;-78
2021/08/21 08:04:06;;;;;;;4.97;2.13;;;;;;;;;;5013289;28;20523;-78
2021/08/21 08:06:31;;;;;;;3.25;1.95;;;21.30;99.90;;;;;;5020162;28;20106;-77
2021/08/21 08:08:57;;;;;;;9.57;2.72;;;21.50;99.90;;;;;;5017268;28;20021;-79
2021/08/21 08:11:23;;;;;;;3.45;1.90;;;21.60;99.90;;;;;;5017069;28;20028;-78
2021/08/21 08:13:48;;;;;;;3.97;1.98;;;21.70;99.90;;;;;;5017941;28;20021;-76
2021/08/21 08:16:14;;;;;;;5.90;2.20;;;21.80;99.90;;;;;;5017789;28;20026;-75
2021/08/21 08:18:40;;;;;;;3.40;2.20;;;;;;;;;;5026202;28;20022;-77
2021/08/21 08:21:05;;;;;;;4.78;2.20;;;22.20;99.40;;;;;;5029636;28;20028;-77
2021/08/21 08:23:31;;;;;;;4.15;2.20;;;22.20;99.40;;;;;;5012146;28;20025;-78
2021/08/21 08:25:56;;;;;;;3.10;2.00;;;22.20;99.40;;;;;;5035166;28;20490;-76
2021/08/21 08:28:22;;;;;;;3.85;2.30;;;22.20;99.60;;;;;;5016577;28;20483;-78
2021/08/21 08:30:48;;;;;;;3.10;1.80;;;;;;;;;;5014806;28;20037;-77
2021/08/21 08:33:13;;;;;;;3.42;2.10;;;22.30;99.20;;;;;;5018436;28;20025;-78
2021/08/21 08:35:39;;;;;;;5.60;1.80;;;22.50;99.20;;;;;;5034442;28;20018;-77
2021/08/21 08:38:04;;;;;;;2.65;1.80;;;22.60;98.60;;;;;;5018027;28;20691;-78
2021/08/21 08:40:30;;;;;;;5.80;2.20;;;;;;;;;;5012516;28;20128;-78
2021/08/21 08:43:03;;;;;;;5.95;2.53;;;22.90;98.10;;;;;;5030166;28;20025;-79
2021/08/21 08:45:29;;;;;;;3.85;2.38;;;23.90;98.60;;;;;;5030049;28;20487;-78
2021/08/21 08:47:55;;;;;;;3.35;2.00;;;23.00;97.90;;;;;;5032843;28;20092;-79
2021/08/21 08:50:20;;;;;;;4.63;2.35;;;22.90;96.80;;;;;;5009578;28;20073;-77
2021/08/21 08:52:46;;;;;;;3.58;2.42;;;22.90;97.20;;;;;;5027352;28;20036;-77
2021/08/21 08:55:12;;;;;;;4.82;2.20;;;22.90;97.10;;;;;;5015509;28;20648;-76
2021/08/21 08:57:47;;;;;;;8.55;2.45;;;22.90;97.50;;;;;;5015924;28;20468;-76
2021/08/21 09:00:18;;;;;;;3.30;2.10;;;23.20;96.80;;;;;;5031317;28;20405;-76
2021/08/21 09:02:47;;;;;;;3.97;2.17;;;23.20;96.60;;;;;;5032395;28;20089;-77
2021/08/21 09:05:16;;;;;;;3.92;2.10;;;23.30;96.30;;;;;;5019223;28;20033;-78
2021/08/21 09:07:51;;;;;;;3.63;2.10;;;23.30;96.50;;;;;;5032511;28;20022;-78
2021/08/21 09:10:32;;;;;;;4.43;2.40;;;23.50;96.40;;;;;;5034927;28;20487;-79
2021/08/21 09:13:15;;;;;;;3.80;2.72;;;23.60;95.70;;;;;;5013254;28;20033;-78
2021/08/21 09:15:46;;;;;;;3.55;1.98;;;23.90;95.10;;;;;;5035468;28;20022;-79
2021/08/21 09:18:17;;;;;;;4.18;2.38;;;23.90;95.20;;;;;;5020525;28;20013;-79
2021/08/21 09:20:49;;;;;;;4.00;2.55;;;24.20;95.00;;;;;;5011176;28;20029;-77
2021/08/21 09:23:19;;;;;;;3.50;2.30;;;24.20;95.10;;;;;;5027707;28;20100;-77
2021/08/21 09:25:45;;;;;;;;;;;24.40;95.00;;;;;;5015388;28;20487;-78
2021/08/21 09:28:37;;;;;;;5.35;2.50;;;24.40;94.20;;;;;;5012440;28;19909;-77
2021/08/21 09:31:13;;;;;;;3.92;2.53;;;24.40;94.30;;;;;;5025631;28;20037;-75
2021/08/21 09:33:41;;;;;;;4.25;2.50;;;24.40;94.30;;;;;;5028225;28;20037;-79
2021/08/21 09:36:12;;;;;;;5.15;2.70;;;24.40;94.60;;;;;;5013316;28;20021;-77
2021/08/21 09:38:39;;;;;;;3.78;2.47;;;24.60;94.30;;;;;;5030723;28;20517;-79
2021/08/21 09:41:11;;;;;;;3.75;2.47;;;24.90;93.50;;;;;;5032561;28;20031;-78
2021/08/21 09:43:38;;;;;;;3.72;2.50;;;24.80;93.70;;;;;;5010143;28;20045;-76
2021/08/21 09:46:14;;;;;;;3.92;2.40;;;24.10;93.20;;;;;;5006991;28;20062;-78
2021/08/21 09:48:58;;;;;;;4.07;2.50;;;25.00;93.50;;;;;;5025154;28;20038;-78
2021/08/21 09:51:39;;;;;;;3.53;2.53;;;25.00;92.70;;;;;;5022329;28;20072;-77
2021/08/21 09:54:11;;;;;;;4.82;2.90;;;25.30;92.60;;;;;;5016779;28;20152;-76
2021/08/21 09:56:39;;;;;;;4.18;2.58;;;25.30;92.90;;;;;;5030250;28;20200;-77
2021/08/21 09:59:06;;;;;;;3.80;2.50;;;25.40;92.50;;;;;;5029672;28;20028;-77
2021/08/21 10:01:32;;;;;;;3.67;2.40;;;25.20;92.30;;;;;;5011212;28;20029;-77
2021/08/21 10:03:59;;;;;;;4.55;2.70;;;25.30;92.40;;;;;;5031785;28;20079;-77
2021/08/21 10:06:25;;;;;;;3.50;2.40;;;25.40;92.70;;;;;;5020649;28;20097;-78
2021/08/21 10:09:03;;;;;;;3.50;2.38;;;26.10;92.50;;;;;;5036027;28;20052;-79
2021/08/21 10:11:29;;;;;;;3.58;2.28;;;;;;;;;;5013923;28;20022;-78
2021/08/21 10:13:56;;;;;;;3.35;2.40;;;25.70;91.50;;;;;;5026793;28;20077;-77
2021/08/21 10:16:22;;;;;;;3.80;2.75;;;;;;;;;;5033425;28;20029;-79
2021/08/21 10:18:48;;;;;;;4.55;2.35;;;25.60;90.80;;;;;;5030477;28;20096;-78
2021/08/21 10:21:16;;;;;;;3.53;2.20;;;25.60;91.50;;;;;;5021175;28;20119;-76
2021/08/21 10:23:44;;;;;;;3.38;2.20;;;25.70;91.70;;;;;;5012919;28;20049;-78
2021/08/21 10:26:28;;;;;;;8.80;4.55;;;25.80;91.70;;;;;;5001962;28;20553;-78
2021/08/21 10:28:55;;;;;;;4.53;2.60;;;25.90;91.50;;;;;;5013306;28;20025;-77
2021/08/21 10:31:42;;;;;;;3.13;2.30;;;26.10;90.50;;;;;;5014132;28;20021;-79
2021/08/21 10:34:10;;;;;;;3.95;2.67;;;26.20;90.70;;;;;;5014473;28;20406;-77
2021/08/21 10:36:58;;;;;;;4.28;2.38;;;26.10;90.10;;;;;;5018040;28;20115;-76
2021/08/21 10:39:33;;;;;;;3.55;2.42;;;26.20;89.70;;;;;;5034602;28;20398;-79
2021/08/21 10:42:33;;;;;;;5.03;2.50;;;26.20;89.80;;;;;;5027913;28;20022;-76
2021/08/21 10:45:00;;;;;;;4.88;2.47;;;26.30;89.40;;;;;;5027158;28;20029;-76
2021/08/21 10:47:32;;;;;;;3.28;2.55;;;26.50;89.50;;;;;;5014110;28;20044;-78
2021/08/21 10:50:13;;;;;;;5.82;3.17;;;26.50;89.00;;;;;;5012612;28;20026;-78
2021/08/21 10:52:57;;;;;;;3.70;2.58;;;26.60;88.80;;;;;;5035103;28;20029;-78
2021/08/21 10:55:25;;;;;;;3.78;2.83;;;26.80;88.70;;;;;;5033026;28;20495;-77
2021/08/21 10:57:56;;;;;;;7.82;3.35;;;26.80;89.00;;;;;;5011381;28;20032;-78
2021/08/21 11:00:40;;;;;;;4.10;2.45;;;;;;;;;;5031918;28;20022;-77
2021/08/21 11:03:08;;;;;;;4.13;2.80;;;26.50;88.90;;;;;;5026423;28;20030;-76
2021/08/21 11:05:56;;;;;;;4.03;2.72;;;27.10;89.90;;;;;;5012759;28;20060;-76
2021/08/21 11:08:27;;;;;;;4.72;2.80;;;26.80;88.10;;;;;;5016555;28;20029;-77
2021/08/21 11:11:14;;;;;;;4.80;2.72;;;26.90;86.90;;;;;;5014671;28;20083;-76
2021/08/21 11:14:20;;;;;;;3.90;2.40;;;26.70;87.60;;;;;;5021466;28;20028;-76
2021/08/21 11:17:01;;;;;;;4.15;2.55;;;26.60;87.80;;;;;;5034963;28;20061;-76
2021/08/21 11:19:44;;;;;;;3.60;2.47;;;26.70;89.10;;;;;;5017297;28;20430;-77
2021/08/21 11:22:12;;;;;;;4.45;2.63;;;27.00;85.80;;;;;;5015392;28;20018;-78
2021/08/21 11:24:59;;;;;;;4.10;2.70;;;27.10;85.10;;;;;;5027597;28;20026;-77
2021/08/21 11:27:25;;;;;;;4.65;2.58;;;27.20;84.90;;;;;;5027864;28;20022;-77
2021/08/21 11:30:06;;;;;;;5.10;2.85;;;27.30;85.80;;;;;;5032503;28;20026;-77
2021/08/21 11:32:46;;;;;;;4.10;2.70;;;27.60;85.50;;;;;;5018390;28;20018;-78
2021/08/21 11:35:18;;;;;;;;;;;27.60;86.00;;;;;;5022600;28;20048;-77
2021/08/21 11:38:00;;;;;;;3.45;2.30;;;27.70;83.30;;;;;;5021201;28;19936;-76
2021/08/21 11:40:39;;;;;;;4.97;2.90;;;27.40;83.60;;;;;;5034844;28;20030;-80
2021/08/21 11:43:08;;;;;;;4.20;2.85;;;27.20;85.30;;;;;;5031862;28;20029;-77
2021/08/21 11:45:34;;;;;;;3.72;2.72;;;27.20;85.90;;;;;;5027596;28;20030;-78
2021/08/21 11:48:00;;;;;;;3.95;2.75;;;;;;;;;;5030807;28;20026;-77
2021/08/21 11:50:28;;;;;;;3.50;2.47;;;27.30;83.90;;;;;;5033369;28;20167;-77
2021/08/21 11:52:54;;;;;;;3.80;2.55;;;;;;;;;;5040211;28;20390;-77
2021/08/21 11:55:21;;;;;;;3.40;2.30;;;27.60;83.90;;;;;;5038101;28;20017;-79
2021/08/21 11:57:47;;;;;;;4.82;2.70;;;27.70;84.00;;;;;;5030146;28;20013;-77
2021/08/21 12:00:15;;;;;;;3.63;2.42;;;27.80;83.50;;;;;;5018399;28;20026;-78
2021/08/21 12:02:51;;;;;;;4.70;2.97;;;27.80;84.00;;;;;;5019783;28;20116;-77
2021/08/21 12:05:25;;;;;;;3.35;2.63;;;28.00;82.90;;;;;;5020393;28;20112;-77
2021/08/21 12:07:54;;;;;;;4.28;2.67;;;27.90;82.30;;;;;;5036791;28;20064;-79
2021/08/21 12:10:20;;;;;;;3.63;2.53;;;27.40;81.50;;;;;;5020464;28;20491;-77
2021/08/21 12:12:53;;;;;;;3.28;2.38;;;28.10;80.90;;;;;;5034577;28;20040;-77
2021/08/21 12:15:26;;;;;;;3.85;2.50;;;28.10;81.40;;;;;;5028388;28;20383;-77
2021/08/21 12:17:52;;;;;;;3.55;2.35;;;28.10;77.30;;;;;;5044315;28;20030;-77
2021/08/21 12:20:18;;;;;;;3.03;2.22;;;28.00;78.40;;;;;;5025616;28;20029;-77
2021/08/21 12:22:44;;;;;;;4.60;2.60;;;28.00;78.80;;;;;;5045562;28;20026;-78
2021/08/21 12:25:10;;;;;;;4.15;2.40;;;28.20;78.50;;;;;;5038256;28;20479;-78
2021/08/21 12:27:35;;;;;;;3.35;2.20;;;28.10;77.90;;;;;;5017904;28;20040;-77
2021/08/21 12:30:11;;;;;;;3.38;2.47;;;28.10;77.60;;;;;;5031730;28;20061;-77
2021/08/21 12:32:37;;;;;;;4.05;2.45;;;;;;;;;;5039576;28;20085;-77
2021/08/21 12:35:16;;;;;;;3.50;2.63;;;28.10;77.50;;;;;;5037905;28;20140;-78
2021/08/21 12:37:42;;;;;;;3.13;2.07;;;28.30;78.50;;;;;;5031514;28;20044;-76
2021/08/21 12:40:16;;;;;;;4.13;2.20;;;28.50;78.10;;;;;;5032439;28;20026;-77
2021/08/21 12:42:43;;;;;;;5.32;3.00;;;28.40;77.60;;;;;;5020260;28;20482;-76
2021/08/21 12:45:25;;;;;;;5.10;2.20;;;28.40;77.30;;;;;;5020024;28;20030;-78
2021/08/21 12:47:51;;;;;;;3.85;2.30;;;28.60;76.70;;;;;;5039247;28;20021;-78
2021/08/21 12:50:19;;;;;;;2.85;2.10;;;28.50;76.40;;;;;;5039215;28;20029;-75
2021/08/21 12:53:00;;;;;;;4.30;2.75;;;28.50;77.90;;;;;;5038082;28;20036;-76
2021/08/21 12:55:26;;;;;;;3.42;2.30;;;28.60;76.10;;;;;;5016626;28;20017;-77
2021/08/21 12:58:11;;;;;;;4.80;2.83;;;28.50;76.40;;;;;;5015492;28;20071;-77
2021/08/21 13:00:37;;;;;;;4.03;2.47;;;;;;;;;;5018783;28;20442;-77
2021/08/21 13:03:16;;;;;;;3.95;2.60;;;28.20;76.30;;;;;;5038247;28;20026;-76
2021/08/21 13:05:41;;;;;;;4.22;2.60;;;28.20;77.00;;;;;;5030215;28;20025;-78
2021/08/21 13:08:08;;;;;;;4.45;2.90;;;28.30;76.60;;;;;;5024336;28;20508;-79
2021/08/21 13:10:37;;;;;;;3.92;2.70;;;28.20;76.60;;;;;;5008160;28;20468;-80